Time;durP1;ratioP1;P1;durP2;ratioP2;P2;SDS_P1;SDS_P2;PMS_P1;PMS_P2;Temp;Humidity;BMP_temperature;BMP_pressure;BME280_temperature;BME280_humidity;BME280_pressure;Samples;Min_cycle;Max_cycle;Signal;HPM_P1;HPM_P2
2022/10/28 00:00:52;;;;;;;9.30;6.43;;;;;;;12.68;89.61;99404.56;5072617;28;20393;-78
2022/10/28 00:03:18;;;;;;;13.65;7.43;;;;;;;12.67;89.97;99405.63;5074236;28;20040;-77
2022/10/28 00:05:44;;;;;;;12.45;6.68;;;;;;;12.61;89.92;99406.59;5075872;28;20024;-78
2022/10/28 00:08:09;;;;;;;11.93;7.05;;;;;;;12.64;90.26;99413.34;5078107;28;20055;-77
2022/10/28 00:10:35;;;;;;;12.35;7.15;;;;;;;12.60;90.15;99404.97;5076736;28;20062;-78
2022/10/28 00:13:00;;;;;;;11.80;7.32;;;;;;;12.62;90.34;99402.06;5071304;28;20032;-78
2022/10/28 00:15:26;;;;;;;14.02;7.78;;;;;;;12.62;90.58;99402.84;5076554;28;20223;-78
2022/10/28 00:17:51;;;;;;;16.00;7.35;;;;;;;12.61;90.68;99401.25;5076355;28;20040;-79
2022/10/28 00:20:16;;;;;;;11.30;8.07;;;;;;;12.54;90.86;99414.00;5070033;28;20028;-78
2022/10/28 00:22:42;;;;;;;11.27;7.25;;;;;;;12.55;90.92;99406.78;5072602;28;20025;-79
2022/10/28 00:25:09;;;;;;;14.25;7.75;;;;;;;12.63;90.28;99406.34;5066217;28;20942;-79
2022/10/28 00:27:34;;;;;;;12.05;7.47;;;;;;;12.68;90.49;99401.06;5075410;28;20043;-78
2022/10/28 00:30:00;;;;;;;10.18;7.55;;;;;;;12.77;90.08;99407.63;5080755;28;20028;-77
2022/10/28 00:32:30;;;;;;;11.45;7.82;;;;;;;12.74;90.13;99408.94;5074995;28;20123;-78
2022/10/28 00:34:55;;;;;;;14.43;7.57;;;;;;;12.73;90.39;99403.81;5069219;28;20024;-78
2022/10/28 00:37:20;;;;;;;10.70;7.72;;;;;;;12.74;90.21;99403.56;5067520;28;20162;-78
2022/10/28 00:39:46;;;;;;;11.70;6.65;;;;;;;12.76;90.01;99397.94;5069729;28;20389;-79
2022/10/28 00:42:14;;;;;;;14.27;7.05;;;;;;;12.74;90.02;99394.72;5077299;28;20032;-78
2022/10/28 00:44:59;;;;;;;10.57;7.70;;;;;;;12.74;89.98;99397.41;5073403;28;20031;-79
2022/10/28 00:47:35;;;;;;;13.10;7.60;;;;;;;12.69;90.06;99408.84;5072168;28;20025;-78
2022/10/28 00:50:32;;;;;;;13.32;7.25;;;;;;;12.54;91.09;99418.53;5074428;28;20028;-78
2022/10/28 00:53:05;;;;;;;15.90;8.32;;;;;;;12.60;90.89;99415.69;5072788;28;20028;-79
2022/10/28 00:55:32;;;;;;;12.13;8.30;;;;;;;12.66;90.95;99409.38;5071717;28;20036;-78
2022/10/28 00:57:59;;;;;;;11.60;7.88;;;;;;;12.69;90.54;99402.69;5069961;28;20024;-79
2022/10/28 01:00:25;;;;;;;14.38;7.97;;;;;;;12.69;90.41;99394.63;5065000;28;20040;-79
2022/10/28 01:02:51;;;;;;;16.15;8.80;;;;;;;12.74;89.75;99394.72;5074686;28;20065;-78
2022/10/28 01:05:21;;;;;;;12.38;7.35;;;;;;;12.71;90.04;99389.88;5074126;28;20037;-79
2022/10/28 01:07:47;;;;;;;11.30;7.25;;;;;;;12.62;90.33;99386.00;5063788;28;20568;-78
2022/10/28 01:10:14;;;;;;;12.43;8.32;;;;;;;12.72;89.71;99394.97;5070390;28;20037;-78
2022/10/28 01:12:51;;;;;;;14.02;7.85;;;;;;;12.67;90.01;99389.53;5074157;28;20120;-78
2022/10/28 01:15:29;;;;;;;19.98;9.55;;;;;;;12.23;92.19;99384.38;5072520;28;20128;-79
2022/10/28 01:18:03;;;;;;;14.77;8.82;;;;;;;12.37;92.50;99377.63;5071111;28;20038;-79
2022/10/28 01:20:57;;;;;;;9.40;6.65;;;;;;;12.70;90.04;99382.88;5072241;28;20046;-78
2022/10/28 01:23:38;;;;;;;12.43;7.63;;;;;;;12.85;89.89;99383.06;5038574;28;20040;-79
2022/10/28 01:26:12;;;;;;;20.05;8.98;;;;;;;12.40;91.26;99380.63;5075921;28;20078;-79
2022/10/28 01:28:56;;;;;;;11.98;9.38;;;;;;;12.14;92.33;99364.44;5070815;28;20025;-79
2022/10/28 01:31:33;;;;;;;7.43;6.22;;;;;;;12.57;89.96;99372.53;5065943;28;20055;-78
2022/10/28 01:34:10;;;;;;;12.40;7.25;;;;;;;12.97;88.29;99378.41;5068622;28;20024;-79
2022/10/28 01:36:41;;;;;;;10.55;7.38;;;;;;;12.92;88.90;99374.84;5070569;28;20028;-79
2022/10/28 01:39:21;;;;;;;12.43;7.13;;;;;;;12.84;88.41;99362.72;5071509;28;20494;-79
2022/10/28 01:41:55;;;;;;;10.80;8.07;;;;;;;12.87;88.84;99374.78;5067459;28;20039;-79
2022/10/28 01:44:38;;;;;;;16.52;7.20;;;;;;;12.88;88.49;99366.50;5074316;28;20028;-79
2022/10/28 01:47:13;;;;;;;11.35;7.68;;;;;;;12.79;88.95;99368.00;5067383;28;20025;-78
2022/10/28 01:49:50;;;;;;;17.42;8.45;;;;;;;12.33;91.63;99377.31;5072644;28;20032;-79
2022/10/28 01:52:21;;;;;;;14.98;7.53;;;;;;;12.78;89.04;99377.09;5069260;28;20052;-79
2022/10/28 01:54:50;;;;;;;14.93;7.55;;;;;;;12.77;88.69;99375.47;5073049;28;20028;-78
2022/10/28 01:57:17;;;;;;;8.63;6.45;;;;;;;12.80;88.30;99383.00;5071173;28;20039;-78
2022/10/28 01:59:44;;;;;;;14.15;7.15;;;;;;;12.63;89.69;99388.41;5068559;28;20020;-79
2022/10/28 02:02:09;;;;;;;11.32;6.97;;;;;;;12.42;91.92;99377.69;5068583;28;20056;-78
2022/10/28 02:04:35;;;;;;;13.88;7.20;;;;;;;12.71;90.04;99389.88;5072202;28;20044;-79
2022/10/28 02:07:00;;;;;;;8.20;7.13;;;;;;;12.61;89.26;99382.50;5072552;28;20082;-78
2022/10/28 02:09:53;;;;;;;11.98;7.78;;;;;;;12.22;92.21;99386.25;5072456;28;20025;-79
2022/10/28 02:12:34;;;;;;;11.50;7.72;;;;;;;11.98;94.07;99376.78;5083859;28;20553;-78
2022/10/28 02:15:05;;;;;;;14.65;8.38;;;;;;;12.30;91.60;99385.81;5084323;28;20064;-77
2022/10/28 02:17:31;;;;;;;13.75;7.43;;;;;;;12.26;92.62;99384.69;5067441;28;20507;-78
2022/10/28 02:19:56;;;;;;;11.30;7.35;;;;;;;12.59;90.82;99376.59;5072608;28;20032;-79
2022/10/28 02:22:45;;;;;;;12.02;8.07;;;;;;;12.40;91.18;99366.44;5075113;28;20484;-78
2022/10/28 02:25:21;;;;;;;9.52;6.57;;;;;;;12.55;90.79;99367.44;5071944;28;20028;-79
2022/10/28 02:28:06;;;;;;;12.57;6.88;;;;;;;12.55;89.93;99353.22;5069794;28;20028;-78
2022/10/28 02:30:38;;;;;;;12.77;7.50;;;;;;;12.56;89.74;99362.88;5064234;28;20032;-78
2022/10/28 02:33:08;;;;;;;13.18;6.50;;;;;;;12.54;89.91;99362.31;5072358;28;20037;-78
2022/10/28 02:35:45;;;;;;;9.93;6.35;;;;;;;12.51;90.01;99360.16;5067323;28;20033;-79
2022/10/28 02:38:17;;;;;;;11.48;7.13;;;;;;;12.60;89.99;99356.78;5066249;28;20032;-79
2022/10/28 02:40:50;;;;;;;14.30;7.00;;;;;;;12.63;89.35;99355.47;5068651;28;20082;-77
2022/10/28 02:43:18;;;;;;;8.50;6.40;;;;;;;12.58;90.21;99345.50;5068855;28;20056;-78
2022/10/28 02:45:48;;;;;;;9.77;6.53;;;;;;;12.59;89.20;99351.69;5070149;28;20033;-79
2022/10/28 02:48:22;;;;;;;13.13;8.20;;;;;;;12.52;90.16;99357.22;5069923;28;20096;-79
2022/10/28 02:50:54;;;;;;;16.83;7.20;;;;;;;12.46;90.43;99362.75;5075999;28;20021;-78
2022/10/28 02:53:25;;;;;;;16.33;6.43;;;;;;;12.45;90.61;99369.97;5068825;28;20037;-78
2022/10/28 02:55:54;;;;;;;8.27;6.25;;;;;;;12.43;90.30;99342.63;5070508;28;20033;-77
2022/10/28 02:58:20;;;;;;;8.43;6.82;;;;;;;12.49;90.25;99362.25;5068947;28;20538;-78
2022/10/28 03:00:45;;;;;;;8.27;6.82;;;;;;;12.47;90.39;99359.03;5073128;28;20097;-79
2022/10/28 03:03:12;;;;;;;12.30;7.03;;;;;;;12.43;90.55;99353.34;5058535;28;20689;-77
2022/10/28 03:05:37;;;;;;;10.00;7.85;;;;;;;12.49;90.08;99354.22;5068855;28;20025;-78
2022/10/28 03:08:03;;;;;;;15.52;7.78;;;;;;;12.45;90.36;99348.53;5070715;28;20055;-79
2022/10/28 03:10:28;;;;;;;10.15;7.28;;;;;;;12.45;90.20;99350.44;5066254;28;20052;-78
2022/10/28 03:12:54;;;;;;;9.73;7.30;;;;;;;12.48;89.94;99345.38;5065883;28;20055;-77
2022/10/28 03:15:19;;;;;;;16.10;8.27;;;;;;;12.30;90.67;99345.66;5066537;28;20481;-78
2022/10/28 03:17:44;;;;;;;11.60;7.63;;;;;;;12.23;91.57;99330.88;5066647;28;20763;-77
2022/10/28 03:20:10;;;;;;;13.02;7.15;;;;;;;12.47;90.06;99316.19;5069788;28;20385;-78
2022/10/28 03:22:36;;;;;;;9.82;7.85;;;;;;;12.49;90.02;99327.47;5067027;28;20059;-78
2022/10/28 03:25:01;;;;;;;8.77;7.28;;;;;;;12.33;91.41;99322.97;5066234;28;20060;-78
2022/10/28 03:27:26;;;;;;;10.05;6.95;;;;;;;12.45;90.33;99321.00;5064139;28;20021;-78
2022/10/28 03:29:52;;;;;;;11.02;6.93;;;;;;;12.36;91.06;99325.16;5070389;28;20024;-78
2022/10/28 03:32:17;;;;;;;9.65;6.90;;;;;;;12.39;90.45;99314.75;5068151;28;20524;-78
2022/10/28 03:34:42;;;;;;;12.65;7.47;;;;;;;12.42;90.14;99327.66;5068796;28;20084;-78
2022/10/28 03:37:08;;;;;;;9.68;6.68;;;;;;;12.46;89.91;99344.00;5068208;28;20037;-78
2022/10/28 03:39:33;;;;;;;10.88;7.10;;;;;;;12.51;89.98;99374.34;5071429;28;20130;-77
2022/10/28 03:42:00;;;;;;;18.02;8.32;;;;;;;12.33;92.07;99374.63;5068218;28;20028;-79
2022/10/28 03:44:26;;;;;;;14.48;7.90;;;;;;;12.11;94.66;99354.22;5052604;28;20062;-78
2022/10/28 03:46:51;;;;;;;16.33;8.35;;;;;;;12.03;95.90;99332.19;5072568;28;20024;-77
2022/10/28 03:49:16;;;;;;;24.73;9.10;;;;;;;12.33;92.84;99321.09;5063508;28;20444;-79
2022/10/28 03:51:41;;;;;;;10.65;7.50;;;;;;;12.47;92.23;99330.38;5069596;28;20655;-78
2022/10/28 03:54:07;;;;;;;13.45;7.00;;;;;;;12.31;93.61;99328.56;5070365;28;20032;-78
2022/10/28 03:56:32;;;;;;;14.27;7.78;;;;;;;12.66;92.16;99329.03;5067760;28;20485;-78
2022/10/28 03:58:57;;;;;;;12.65;7.78;;;;;;;12.79;91.58;99325.97;5089000;28;20631;-77
2022/10/28 04:01:23;;;;;;;14.73;8.35;;;;;;;12.77;91.13;99316.53;5075654;28;20089;-77
2022/10/28 04:03:48;;;;;;;14.10;9.55;;;;;;;12.82;91.48;99320.06;5073907;28;20055;-79
2022/10/28 04:06:14;;;;;;;19.42;7.93;;;;;;;12.59;92.40;99323.03;5072357;28;20088;-78
2022/10/28 04:08:39;;;;;;;14.18;7.55;;;;;;;12.62;92.45;99319.06;5072991;28;20029;-78
2022/10/28 04:11:04;;;;;;;13.63;7.68;;;;;;;12.57;92.08;99313.63;5074089;28;20044;-78
2022/10/28 04:13:30;;;;;;;13.48;6.93;;;;;;;12.64;92.55;99306.22;5067783;28;20052;-78
2022/10/28 04:15:55;;;;;;;11.38;7.45;;;;;;;12.73;91.70;99310.06;5070419;28;20078;-78
2022/10/28 04:18:21;;;;;;;13.70;8.15;;;;;;;12.48;93.15;99313.25;5068514;28;20553;-78
2022/10/28 04:20:46;;;;;;;16.42;8.07;;;;;;;12.72;91.71;99308.44;5085752;28;20128;-78
2022/10/28 04:23:17;;;;;;;10.77;7.35;;;;;;;12.88;91.11;99312.09;5070796;28;20071;-78
2022/10/28 04:25:43;;;;;;;12.57;7.70;;;;;;;12.78;91.15;99302.91;5074645;28;20473;-79
2022/10/28 04:28:08;;;;;;;11.20;7.60;;;;;;;12.73;91.42;99304.72;5075087;28;20067;-77
2022/10/28 04:30:33;;;;;;;14.63;8.95;;;;;;;12.39;95.12;99314.75;5076834;28;20461;-78
2022/10/28 04:32:59;;;;;;;14.38;8.00;;;;;;;12.37;94.38;99308.84;5072791;28;20036;-79
2022/10/28 04:35:25;;;;;;;10.07;6.95;;;;;;;12.59;92.37;99298.13;5074259;28;20028;-79
2022/10/28 04:37:51;;;;;;;14.18;7.35;;;;;;;12.79;91.56;99299.16;5064005;28;20127;-79
2022/10/28 04:40:16;;;;;;;10.43;7.15;;;;;;;12.96;90.66;99303.59;5077120;28;20051;-78
2022/10/28 04:42:41;;;;;;;12.43;7.50;;;;;;;12.96;91.11;99311.66;5069129;28;20060;-78
2022/10/28 04:45:07;;;;;;;12.20;8.07;;;;;;;12.88;91.73;99298.72;5070136;28;20025;-79
2022/10/28 04:47:33;;;;;;;15.75;8.55;;;;;;;12.78;91.85;99297.53;5056054;28;20035;-79
2022/10/28 04:49:58;;;;;;;15.18;7.55;;;;;;;12.84;91.89;99302.97;5077049;28;20056;-78
2022/10/28 04:52:24;;;;;;;16.20;8.32;;;;;;;12.88;92.45;99306.75;5072109;28;20036;-78
2022/10/28 04:54:49;;;;;;;16.92;7.75;;;;;;;12.96;91.78;99311.66;5076892;28;20034;-78
2022/10/28 04:57:14;;;;;;;12.55;7.80;;;;;;;12.82;91.80;99295.16;5076454;28;20119;-77
2022/10/28 04:59:40;;;;;;;13.20;7.78;;;;;;;12.70;92.16;99292.63;5069130;28;20125;-79
2022/10/28 05:02:05;;;;;;;12.82;7.15;;;;;;;12.67;92.57;99290.44;5068479;28;20033;-78
2022/10/28 05:04:30;;;;;;;14.15;9.07;;;;;;;12.70;91.74;99289.97;5072857;28;20035;-78
2022/10/28 05:06:55;;;;;;;15.05;7.18;;;;;;;12.51;93.22;99277.16;5070859;28;20078;-77
2022/10/28 05:09:21;;;;;;;10.02;7.00;;;;;;;12.77;91.86;99282.53;5071222;28;20071;-78
2022/10/28 05:11:46;;;;;;;13.38;7.00;;;;;;;12.79;91.16;99282.28;5074017;28;20461;-78
2022/10/28 05:14:11;;;;;;;9.55;7.28;;;;;;;12.70;91.38;99273.88;5068941;28;20588;-79
2022/10/28 05:16:37;;;;;;;8.70;7.28;;;;;;;12.76;91.41;99264.03;5069001;28;20036;-78
2022/10/28 05:19:02;;;;;;;9.00;7.65;;;;;;;12.87;91.12;99271.09;5069580;28;20111;-78
2022/10/28 05:21:27;;;;;;;11.73;7.00;;;;;;;12.90;90.40;99267.94;5070338;28;20037;-79
2022/10/28 05:23:53;;;;;;;13.77;7.78;;;;;;;12.79;90.66;99260.84;5070058;28;20033;-78
2022/10/28 05:26:18;;;;;;;16.08;8.00;;;;;;;12.74;91.44;99260.78;5071013;28;20036;-79
2022/10/28 05:28:48;;;;;;;14.40;6.53;;;;;;;12.92;90.74;99255.09;5072485;28;20404;-78
2022/10/28 05:31:13;;;;;;;9.95;6.95;;;;;;;12.89;90.66;99266.31;5071033;28;20032;-78
2022/10/28 05:33:39;;;;;;;13.68;7.93;;;;;;;12.85;91.28;99259.84;5062840;28;20039;-79
2022/10/28 05:36:04;;;;;;;12.35;7.28;;;;;;;12.84;91.51;99263.59;5072905;28;20040;-79
2022/10/28 05:38:29;;;;;;;17.83;7.95;;;;;;;12.86;91.40;99260.66;5066704;28;20047;-79
2022/10/28 05:40:55;;;;;;;9.38;6.80;;;;;;;12.85;91.58;99259.84;5069594;28;20028;-79
2022/10/28 05:43:20;;;;;;;9.55;7.05;;;;;;;12.87;91.60;99265.75;5066624;28;20095;-79
2022/10/28 05:45:53;;;;;;;12.32;7.50;;;;;;;12.85;92.07;99277.78;5071235;28;20029;-80
2022/10/28 05:48:18;;;;;;;11.38;7.90;;;;;;;12.70;92.43;99268.53;5066735;28;20374;-81
2022/10/28 05:50:44;;;;;;;19.75;9.35;;;;;;;12.87;91.92;99264.94;5064114;28;20061;-78
2022/10/28 05:53:09;;;;;;;15.32;7.80;;;;;;;12.77;92.43;99260.28;5050683;28;20024;-79
2022/10/28 05:55:34;;;;;;;12.52;7.72;;;;;;;12.69;92.70;99266.09;5060636;28;20032;-79
2022/10/28 05:58:00;;;;;;;11.85;7.22;;;;;;;12.85;92.06;99262.50;5071139;28;20032;-79
2022/10/28 06:00:26;;;;;;;17.13;7.78;;;;;;;12.70;92.05;99257.81;5074346;28;20040;-78
2022/10/28 06:02:51;;;;;;;15.70;8.23;;;;;;;12.32;94.97;99249.09;5071168;28;20035;-79
2022/10/28 06:05:17;;;;;;;14.65;7.85;;;;;;;12.31;95.18;99244.78;5067315;28;20111;-79
2022/10/28 06:07:42;;;;;;;11.93;8.23;;;;;;;12.22;95.29;99256.97;5063574;28;20031;-79
2022/10/28 06:10:09;;;;;;;10.90;6.70;;;;;;;12.37;93.76;99244.59;5064021;28;20055;-80
2022/10/28 06:12:34;;;;;;;10.68;7.15;;;;;;;12.54;92.66;99245.31;5065193;28;20095;-79
2022/10/28 06:15:00;;;;;;;9.32;6.95;;;;;;;12.69;91.66;99244.66;5072564;28;20111;-80
2022/10/28 06:17:25;;;;;;;11.57;6.88;;;;;;;12.72;91.67;99250.34;5065451;28;20028;-78
2022/10/28 06:19:51;;;;;;;16.60;7.88;;;;;;;12.71;91.56;99250.59;5069747;28;20043;-82
2022/10/28 06:22:16;;;;;;;12.40;7.70;;;;;;;12.55;91.81;99233.56;5057274;28;20032;-82
2022/10/28 06:24:42;;;;;;;13.63;6.63;;;;;;;12.72;90.83;99236.13;5077433;28;20020;-81
2022/10/28 06:27:07;;;;;;;11.70;7.15;;;;;;;12.77;90.66;99253.06;5073832;28;20491;-77
2022/10/28 06:29:33;;;;;;;14.00;6.50;;;;;;;12.74;90.69;99256.25;5068698;28;20047;-81
2022/10/28 06:31:59;;;;;;;11.85;6.82;;;;;;;12.74;90.78;99252.75;5068041;28;20040;-81
2022/10/28 06:34:24;;;;;;;13.93;7.70;;;;;;;12.73;90.68;99261.88;5070939;28;20035;-81
2022/10/28 06:36:49;;;;;;;13.88;6.85;;;;;;;12.61;90.65;99253.97;5067944;28;20415;-80
2022/10/28 06:39:15;;;;;;;8.07;6.72;;;;;;;12.70;91.00;99257.00;5083724;28;20033;-80
2022/10/28 06:41:40;;;;;;;10.80;7.10;;;;;;;12.59;91.28;99257.94;5069390;28;20040;-81
2022/10/28 06:44:05;;;;;;;8.43;7.05;;;;;;;12.47;91.67;99259.97;5078426;28;20040;-79
2022/10/28 06:46:31;;;;;;;13.75;7.10;;;;;;;12.61;91.08;99258.50;5077472;28;20093;-81
2022/10/28 06:48:56;;;;;;;14.00;7.43;;;;;;;12.66;91.07;99266.59;5077142;28;20028;-81
2022/10/28 06:51:22;;;;;;;12.13;6.93;;;;;;;12.64;91.35;99266.06;5075468;28;20037;-81
2022/10/28 06:53:49;;;;;;;9.50;6.55;;;;;;;12.80;90.45;99271.31;5080788;28;20032;-81
2022/10/28 06:56:14;;;;;;;13.10;7.47;;;;;;;12.60;90.97;99262.25;5075198;28;20039;-81
2022/10/28 06:58:40;;;;;;;15.20;7.57;;;;;;;12.67;91.67;99276.25;5073274;28;20032;-81
2022/10/28 07:01:05;;;;;;;11.63;7.75;;;;;;;12.71;91.20;99267.44;5082748;28;20029;-81
2022/10/28 07:03:33;;;;;;;11.82;7.53;;;;;;;12.54;91.58;99257.88;5080910;28;20070;-80
2022/10/28 07:05:59;;;;;;;11.98;7.53;;;;;;;12.54;92.31;99264.06;5080853;28;20056;-81
2022/10/28 07:08:28;;;;;;;12.25;7.38;;;;;;;12.54;92.04;99264.06;5081759;28;20071;-81
2022/10/28 07:10:58;;;;;;;13.02;7.53;;;;;;;12.51;92.54;99261.91;5080037;28;20497;-81
2022/10/28 07:13:24;;;;;;;14.68;8.10;;;;;;;12.61;92.63;99266.53;5078180;28;20024;-81
2022/10/28 07:15:54;;;;;;;11.82;7.20;;;;;;;12.62;91.61;99260.91;5084754;28;20040;-81
2022/10/28 07:18:20;;;;;;;11.75;7.78;;;;;;;12.48;92.83;99253.53;5081632;28;20033;-81
2022/10/28 07:20:45;;;;;;;11.63;6.85;;;;;;;12.73;91.69;99264.53;5080580;28;20024;-81
2022/10/28 07:23:11;;;;;;;11.98;7.55;;;;;;;12.89;90.96;99255.59;5081055;28;20086;-81
2022/10/28 07:25:36;;;;;;;13.73;6.55;;;;;;;12.77;91.09;99260.28;5088454;28;20020;-81
2022/10/28 07:28:02;;;;;;;11.45;6.97;;;;;;;12.59;92.20;99256.09;5082280;28;20028;-81
2022/10/28 07:35:36;;;;;;;11.43;6.53;;;;;;;12.85;92.03;99262.50;5031670;28;20053;-82
2022/10/28 07:38:01;;;;;;;15.88;7.70;;;;;;;12.82;91.59;99263.81;4977533;28;20030;-82
2022/10/28 07:40:26;;;;;;;12.80;7.13;;;;;;;12.75;91.96;99254.38;5013062;28;20361;-82
2022/10/28 07:42:52;;;;;;;19.00;7.18;;;;;;;12.92;91.99;99270.34;5031526;28;20103;-82
2022/10/28 07:45:18;;;;;;;10.68;7.70;;;;;;;12.60;93.19;99241.63;5016096;28;20055;-82
2022/10/28 07:47:43;;;;;;;12.73;7.15;;;;;;;12.56;94.65;99243.19;5028566;28;20037;-82
2022/10/28 07:50:10;;;;;;;10.05;6.60;;;;;;;12.65;92.71;99230.16;5032544;28;20455;-82
2022/10/28 07:52:36;;;;;;;15.95;9.05;;;;;;;12.78;94.89;99261.91;5033238;28;20378;-82
2022/10/28 07:55:03;;;;;;;15.82;7.45;;;;;;;12.72;95.61;99254.88;5025831;28;20040;-82
2022/10/28 07:57:29;;;;;;;23.48;10.13;;;;;;;12.82;96.25;99264.91;5029736;28;20457;-82
2022/10/28 07:59:54;;;;;;;12.45;7.03;;;;;;;12.93;92.84;99256.69;5016127;28;20057;-82
2022/10/28 08:02:23;;;;;;;10.68;6.95;;;;;;;12.92;95.17;99265.00;5032561;28;20033;-82
2022/10/28 08:04:49;;;;;;;13.52;7.75;;;;;;;13.17;91.17;99244.63;5030058;28;20029;-82
2022/10/28 08:07:15;;;;;;;10.52;6.60;;;;;;;13.24;90.51;99263.97;5018985;28;20025;-82
2022/10/28 08:09:41;;;;;;;15.55;7.65;;;;;;;12.96;94.50;99263.41;5013201;28;20132;-83
2022/10/28 08:12:07;;;;;;;11.13;6.45;;;;;;;13.04;92.20;99252.25;5034275;28;20038;-82
2022/10/28 08:14:33;;;;;;;28.05;8.75;;;;;;;13.05;93.00;99269.97;5011392;28;20033;-82
2022/10/28 08:16:58;;;;;;;19.60;6.88;;;;;;;13.11;94.21;99269.75;4995407;28;20508;-83
2022/10/28 08:19:24;;;;;;;10.80;6.72;;;;;;;13.06;92.73;99268.91;5032963;28;20041;-82
2022/10/28 08:21:49;;;;;;;8.77;6.07;;;;;;;13.20;91.06;99257.53;5011132;28;20113;-83
2022/10/28 08:24:14;;;;;;;7.55;5.65;;;;;;;13.33;90.55;99267.00;4997656;28;20037;-82
2022/10/28 08:26:40;;;;;;;8.57;6.15;;;;;;;13.54;90.11;99287.56;5031004;28;20026;-83
2022/10/28 08:29:06;;;;;;;19.75;7.95;;;;;;;13.24;92.71;99282.75;5010728;28;20044;-82
2022/10/28 08:31:33;;;;;;;15.00;7.70;;;;;;;13.33;94.33;99286.59;5004202;28;20025;-82
2022/10/28 08:33:58;;;;;;;13.32;7.28;;;;;;;13.26;96.60;99282.47;5012046;28;20461;-82
2022/10/28 08:36:23;;;;;;;19.73;9.48;;;;;;;13.24;95.29;99279.25;5032221;28;20060;-82
2022/10/28 08:38:49;;;;;;;14.48;7.72;;;;;;;13.33;96.26;99267.81;4996950;28;20478;-83
2022/10/28 08:41:20;;;;;;;15.10;7.70;;;;;;;13.63;95.51;99294.06;5031212;28;20034;-82
2022/10/28 08:44:03;;;;;;;14.82;6.75;;;;;;;13.51;93.70;99270.13;5012054;28;20033;-82
2022/10/28 08:46:40;;;;;;;13.32;7.10;;;;;;;13.76;95.63;99296.28;5029471;28;20052;-82
2022/10/28 08:49:18;;;;;;;16.95;7.03;;;;;;;13.60;95.50;99289.22;5028239;28;20033;-82
2022/10/28 08:51:48;;;;;;;10.73;6.82;;;;;;;13.78;95.34;99294.16;5027834;28;20112;-82
2022/10/28 08:54:19;;;;;;;14.50;7.07;;;;;;;13.85;95.72;99286.69;5016871;28;20083;-82
2022/10/28 08:56:47;;;;;;;11.60;6.25;;;;;;;13.76;96.63;99284.78;4998910;28;20032;-82
2022/10/28 08:59:17;;;;;;;12.65;7.22;;;;;;;13.81;96.02;99295.53;5015854;28;20087;-82
2022/10/28 09:01:53;;;;;;;15.32;7.22;;;;;;;13.72;96.11;99283.66;5030572;28;20107;-82
2022/10/28 09:04:28;;;;;;;16.08;6.90;;;;;;;13.87;96.43;99297.97;5002505;28;20042;-83
2022/10/28 09:06:54;;;;;;;18.23;6.90;;;;;;;13.77;95.78;99292.56;5030485;28;20022;-83
2022/10/28 09:09:21;;;;;;;18.10;7.93;;;;;;;13.89;95.81;99276.28;5027775;28;20030;-82
2022/10/28 09:12:17;;;;;;;7.93;6.40;;;;;;;14.04;94.89;99282.50;5009857;28;20026;-82
2022/10/28 09:15:01;;;;;;;11.65;6.53;;;;;;;14.08;92.44;99290.88;5029625;28;20032;-82
2022/10/28 09:17:52;;;;;;;12.45;7.25;;;;;;;14.22;91.40;99282.09;5012922;28;20079;-82
2022/10/28 09:20:43;;;;;;;27.48;7.80;;;;;;;14.25;94.39;99284.25;5025499;28;20037;-82
2022/10/28 09:23:27;;;;;;;12.68;6.22;;;;;;;14.26;92.13;99279.69;5011425;28;20116;-82
2022/10/28 09:25:58;;;;;;;12.55;5.68;;;;;;;14.59;92.82;99290.06;5031368;28;20065;-82
2022/10/28 09:28:39;;;;;;;15.60;6.45;;;;;;;14.32;92.86;99288.59;5026704;28;20571;-82
2022/10/28 09:31:12;;;;;;;18.45;5.63;;;;;;;14.48;93.43;99298.34;5029200;28;21733;-83
2022/10/28 09:33:41;;;;;;;10.45;5.45;;;;;;;14.52;91.53;99296.75;5013036;28;20036;-82
2022/10/28 09:36:16;;;;;;;13.50;6.35;;;;;;;14.36;93.37;99277.09;5029182;28;20079;-82
2022/10/28 09:38:43;;;;;;;8.57;5.87;;;;;;;14.40;91.23;99272.78;5018145;28;20033;-83
2022/10/28 09:41:22;;;;;;;11.05;6.60;;;;;;;14.56;93.54;99279.84;5014364;28;20025;-85
2022/10/28 09:44:17;;;;;;;15.45;6.53;;;;;;;14.51;91.95;99263.72;5030063;28;20037;-85
2022/10/28 09:46:47;;;;;;;15.85;6.22;;;;;;;14.42;91.81;99262.59;5018217;28;20041;-85
2022/10/28 09:49:21;;;;;;;14.70;6.70;;;;;;;14.69;92.34;99265.09;5011727;28;20033;-84
2022/10/28 09:51:54;;;;;;;17.05;6.45;;;;;;;14.53;92.24;99250.81;5011540;28;20457;-85
2022/10/28 09:54:27;;;;;;;10.27;6.20;;;;;;;14.64;92.14;99257.03;5020542;28;20369;-85
2022/10/28 09:56:53;;;;;;;15.93;6.07;;;;;;;14.77;93.47;99272.66;5027468;28;20021;-85
2022/10/28 09:59:19;;;;;;;15.40;5.97;;;;;;;14.77;91.91;99268.09;5031204;28;20111;-85
2022/10/28 10:01:46;;;;;;;16.35;5.65;;;;;;;15.36;90.96;99254.97;4994960;28;20087;-85
2022/10/28 10:04:19;;;;;;;12.25;5.97;;;;;;;15.46;88.98;99271.16;5011843;28;20050;-84
2022/10/28 10:06:48;;;;;;;11.55;5.63;;;;;;;15.02;90.36;99264.66;5023798;28;20032;-85
2022/10/28 10:09:22;;;;;;;15.02;6.18;;;;;;;15.31;90.39;99259.56;5013157;28;20090;-84
2022/10/28 10:11:49;;;;;;;13.27;6.38;;;;;;;15.42;89.48;99267.34;5025847;28;20037;-85
2022/10/28 10:14:21;;;;;;;15.20;5.32;;;;;;;15.55;89.02;99263.38;4993847;28;20178;-85
2022/10/28 10:16:51;;;;;;;10.90;5.30;;;;;;;15.12;88.83;99240.44;5029278;28;20025;-84
2022/10/28 10:19:17;;;;;;;24.73;6.03;;;;;;;15.72;89.85;99253.13;5004959;28;20044;-85
2022/10/28 10:21:44;;;;;;;13.15;6.15;;;;;;;15.93;87.96;99254.69;5009017;28;20477;-85
2022/10/28 10:24:32;;;;;;;6.25;4.65;;;;;;;15.52;89.05;99258.50;5026738;28;20029;-85
2022/10/28 10:27:11;;;;;;;14.85;5.25;;;;;;;15.61;91.00;99264.97;5008656;28;20026;-85
2022/10/28 10:29:44;;;;;;;14.88;5.47;;;;;;;15.93;88.15;99260.06;5010022;28;20029;-85
2022/10/28 10:32:21;;;;;;;11.23;4.75;;;;;;;15.76;89.41;99229.94;4993252;28;20733;-85
2022/10/28 10:35:21;;;;;;;20.73;4.93;;;;;;;15.66;89.85;99243.44;5005191;28;20078;-85
2022/10/28 10:37:47;;;;;;;9.38;5.03;;;;;;;15.81;88.88;99219.19;5037451;28;20104;-85
2022/10/28 10:40:32;;;;;;;15.38;4.80;;;;;;;15.83;89.23;99246.63;5030211;28;20414;-84
2022/10/28 10:43:29;;;;;;;14.13;4.90;;;;;;;15.87;87.99;99242.31;5031724;28;20045;-85
2022/10/28 10:46:03;;;;;;;;;;;;;;;15.79;87.41;99242.88;5026498;28;20031;-86
2022/10/28 10:48:32;;;;;;;13.80;4.45;;;;;;;15.99;84.52;99231.25;5027221;28;19952;-85
2022/10/28 10:51:04;;;;;;;11.70;4.25;;;;;;;15.98;84.88;99233.13;5027429;28;20508;-85
2022/10/28 10:53:31;;;;;;;16.23;4.30;;;;;;;15.87;85.47;99226.16;5025729;28;20044;-85
2022/10/28 10:56:09;;;;;;;10.48;4.43;;;;;;;16.22;82.23;99222.53;5011077;28;20025;-85
2022/10/28 10:58:39;;;;;;;11.98;4.75;;;;;;;16.43;80.09;99219.47;5029008;28;20310;-85
2022/10/28 11:01:07;;;;;;;12.38;5.07;;;;;;;16.35;80.87;99214.69;5025389;28;20052;-85
2022/10/28 11:03:35;;;;;;;14.40;4.57;;;;;;;17.19;76.82;99217.13;5026880;28;20064;-85
2022/10/28 11:06:03;;;;;;;9.93;4.43;;;;;;;18.01;72.59;99206.38;4993628;28;20022;-84
2022/10/28 11:08:38;;;;;;;11.13;4.35;;;;;;;18.46;70.59;99211.22;5028756;28;20105;-83
2022/10/28 11:11:20;;;;;;;16.23;5.17;;;;;;;18.58;70.03;99212.44;5015012;28;20025;-85
2022/10/28 11:13:46;;;;;;;12.32;3.90;;;;;;;18.76;68.02;99197.31;5032925;28;20525;-85
2022/10/28 11:16:23;;;;;;;15.40;4.85;;;;;;;18.93;68.11;99221.13;5012419;28;20041;-85
2022/10/28 11:18:52;;;;;;;11.55;3.83;;;;;;;19.03;68.13;99219.06;5014646;28;20025;-85
2022/10/28 11:21:35;;;;;;;20.67;4.68;;;;;;;18.95;68.04;99203.50;5011338;28;20477;-85
2022/10/28 11:24:21;;;;;;;15.68;4.32;;;;;;;19.13;67.54;99205.34;5033102;28;20418;-85
2022/10/28 11:27:09;;;;;;;17.33;5.72;;;;;;;19.13;67.27;99204.56;5033558;28;20029;-85
2022/10/28 11:29:35;;;;;;;13.45;4.35;;;;;;;19.14;66.67;99185.31;5000740;28;20033;-85
2022/10/28 11:32:17;;;;;;;9.88;4.05;;;;;;;19.24;67.37;99195.19;5014839;28;20029;-85
2022/10/28 11:34:54;;;;;;;11.45;3.50;;;;;;;19.09;67.90;99180.00;5034587;28;20033;-85
2022/10/28 11:37:50;;;;;;;10.82;4.30;;;;;;;19.13;68.12;99185.63;5031376;28;20079;-85
2022/10/28 11:40:46;;;;;;;16.23;4.30;;;;;;;19.06;68.51;99188.72;5024449;28;20056;-85
2022/10/28 11:43:48;;;;;;;14.00;3.70;;;;;;;19.03;68.28;99185.78;5032859;28;20551;-84